Time,TemperatureF,DewpointF,PressureIn,WindDirection,WindDirectionDegrees,WindSpeedMPH,WindSpeedGustMPH,Humidity,HourlyPrecipIn,Conditions,Clouds,dailyrainin,SoftwareType,DateUTC
2013-07-11 00:01:00,83.0,46.0,29.94,WNW,297,20.0,32.0,27,0.00,,,0.00,,2013-07-11 07:01:00,
2013-07-11 00:12:00,83.0,45.0,29.95,WNW,295,23.0,37.0,26,0.00,,,0.00,,2013-07-11 07:12:00,
2013-07-11 00:32:00,83.0,41.0,29.93,WNW,303,19.0,32.0,23,0.00,,,0.00,,2013-07-11 07:32:00,
2013-07-11 00:45:00,83.0,40.0,29.93,WNW,297,24.0,34.0,22,0.00,,,0.00,,2013-07-11 07:45:00,
2013-07-11 00:53:00,84.0,42.0,29.93,WNW,298,15.0,35.0,23,0.00,,,0.00,,2013-07-11 07:53:00,
2013-07-11 01:02:00,83.0,41.0,29.91,WNW,295,23.0,42.0,23,0.00,,,0.00,,2013-07-11 08:02:00,
2013-07-11 01:11:00,83.0,42.0,29.91,WNW,301,20.0,35.0,24,0.00,,,0.00,,2013-07-11 08:11:00,
2013-07-11 01:22:00,83.0,42.0,29.92,NW,305,14.0,33.0,24,0.00,,,0.00,,2013-07-11 08:22:00,
2013-07-11 01:33:00,83.0,41.0,29.91,WNW,298,20.0,34.0,23,0.00,,,0.00,,2013-07-11 08:33:00,
2013-07-11 01:42:00,83.0,44.0,29.92,WNW,300,16.0,34.0,25,0.00,,,0.00,,2013-07-11 08:42:00,
2013-07-11 01:53:00,83.0,44.0,29.92,WNW,300,16.0,34.0,25,0.00,,,0.00,,2013-07-11 08:53:00,
2013-07-11 02:02:00,84.0,47.0,29.91,NW,313,12.0,24.0,28,0.00,,,0.00,,2013-07-11 09:02:00,
2013-07-11 02:12:00,84.0,47.0,29.92,WNW,294,14.0,22.0,28,0.00,,,0.00,,2013-07-11 09:12:00,
2013-07-11 02:33:00,82.0,46.0,29.92,WNW,299,18.0,30.0,28,0.00,,,0.00,,2013-07-11 09:33:00,
2013-07-11 02:43:00,82.0,46.0,29.91,WNW,302,17.0,29.0,28,0.00,,,0.00,,2013-07-11 09:43:00,
2013-07-11 02:53:00,82.0,46.0,29.90,WNW,302,17.0,27.0,28,0.00,,,0.00,,2013-07-11 09:53:00,
2013-07-11 03:01:00,82.0,45.0,29.91,WNW,302,20.0,29.0,27,0.00,,,0.00,,2013-07-11 10:01:00,
2013-07-11 03:11:00,82.0,45.0,29.90,WNW,298,10.0,16.0,27,0.00,,,0.00,,2013-07-11 10:11:00,
2013-07-11 03:21:00,83.0,46.0,29.91,WNW,299,13.0,25.0,27,0.00,,,0.00,,2013-07-11 10:21:00,
2013-07-11 03:33:00,84.0,46.0,29.91,WNW,298,11.0,24.0,27,0.00,,,0.00,,2013-07-11 10:33:00,
2013-07-11 03:42:00,83.0,41.0,29.94,SW,218,7.0,18.0,23,0.00,,,0.00,,2013-07-11 10:42:00,
2013-07-11 03:52:00,83.0,41.0,29.94,SW,218,7.0,18.0,23,0.00,,,0.00,,2013-07-11 10:52:00,
2013-07-11 04:01:00,82.0,44.0,29.93,WSW,239,11.0,18.0,26,0.00,,,0.00,,2013-07-11 11:01:00,
2013-07-11 04:11:00,82.0,46.0,29.91,West,278,12.0,22.0,28,0.00,,,0.00,,2013-07-11 11:11:00,
2013-07-11 04:22:00,82.0,43.0,29.92,WNW,292,15.0,23.0,25,0.00,,,0.00,,2013-07-11 11:22:00,
2013-07-11 04:32:00,82.0,41.0,29.92,WNW,283,14.0,29.0,23,0.00,,,0.00,,2013-07-11 11:32:00,
2013-07-11 04:43:00,82.0,42.0,29.92,WNW,297,16.0,24.0,24,0.00,,,0.00,,2013-07-11 11:43:00,
2013-07-11 04:53:00,82.0,42.0,29.93,WNW,289,15.0,24.0,24,0.00,,,0.00,,2013-07-11 11:53:00,
2013-07-11 05:01:00,81.0,42.0,29.93,WNW,298,16.0,28.0,25,0.00,,,0.00,,2013-07-11 12:01:00,
2013-07-11 05:12:00,81.0,44.0,29.94,WNW,296,11.0,21.0,27,0.00,,,0.00,,2013-07-11 12:12:00,
2013-07-11 05:22:00,80.0,44.0,29.94,WNW,298,15.0,22.0,28,0.00,,,0.00,,2013-07-11 12:22:00,
2013-07-11 05:33:00,80.0,45.0,29.93,WNW,299,9.0,23.0,29,0.00,,,0.00,,2013-07-11 12:33:00,
2013-07-11 05:42:00,80.0,45.0,29.94,WSW,245,7.0,16.0,29,0.00,,,0.00,,2013-07-11 12:42:00,
2013-07-11 05:53:00,80.0,45.0,29.94,WSW,245,7.0,16.0,29,0.00,,,0.00,,2013-07-11 12:53:00,
2013-07-11 06:01:00,80.0,41.0,29.94,WNW,296,17.0,25.0,25,0.00,,,0.00,,2013-07-11 13:01:00,
2013-07-11 06:11:00,80.0,41.0,29.94,WNW,296,17.0,25.0,25,0.00,,,0.00,,2013-07-11 13:11:00,
2013-07-11 06:33:00,81.0,44.0,29.95,WNW,297,16.0,24.0,27,0.00,,,0.00,,2013-07-11 13:33:00,
2013-07-11 06:43:00,80.0,44.0,29.95,NW,310,9.0,20.0,28,0.00,,,0.00,,2013-07-11 13:43:00,
2013-07-11 06:52:00,80.0,44.0,29.95,NW,310,9.0,20.0,28,0.00,,,0.00,,2013-07-11 13:52:00,
2013-07-11 07:02:00,80.0,47.0,29.95,NNW,335,6.0,14.0,31,0.00,,,0.00,,2013-07-11 14:02:00,
2013-07-11 07:11:00,80.0,47.0,29.95,NNW,335,6.0,14.0,31,0.00,,,0.00,,2013-07-11 14:11:00,
2013-07-11 07:22:00,80.0,47.0,29.96,NNW,342,4.0,13.0,31,0.00,,,0.00,,2013-07-11 14:22:00,
2013-07-11 07:33:00,80.0,46.0,29.97,East,93,4.0,7.0,30,0.00,,,0.00,,2013-07-11 14:33:00,
2013-07-11 07:53:00,82.0,45.0,29.97,East,97,1.0,10.0,27,0.00,,,0.00,,2013-07-11 14:53:00,
2013-07-11 08:03:00,82.0,45.0,29.97,North,0,0.0,6.0,27,0.00,,,0.00,,2013-07-11 15:03:00,
2013-07-11 08:12:00,82.0,45.0,29.97,North,0,0.0,9.0,27,0.00,,,0.00,,2013-07-11 15:12:00,
2013-07-11 08:34:00,82.0,46.0,29.98,SSE,162,3.0,13.0,28,0.00,,,0.00,,2013-07-11 15:34:00,
2013-07-11 08:44:00,81.0,46.0,29.98,SE,145,6.0,12.0,29,0.00,,,0.00,,2013-07-11 15:44:00,
2013-07-11 08:53:00,82.0,44.0,29.98,South,170,3.0,10.0,26,0.00,,,0.00,,2013-07-11 15:53:00,
2013-07-11 09:02:00,82.0,45.0,29.99,South,185,2.0,10.0,27,0.00,,,0.00,,2013-07-11 16:02:00,
2013-07-11 09:12:00,82.0,45.0,29.99,SSE,161,4.0,11.0,27,0.00,,,0.00,,2013-07-11 16:12:00,
2013-07-11 09:22:00,78.0,49.0,29.99,SSW,199,6.0,18.0,36,0.00,,,0.00,,2013-07-11 16:22:00,
2013-07-11 09:43:00,76.0,49.0,30.00,SSW,207,10.0,16.0,39,0.00,,,0.00,,2013-07-11 16:43:00,
2013-07-11 09:53:00,76.0,49.0,30.01,SSW,208,9.0,16.0,39,0.00,,,0.00,,2013-07-11 16:53:00,
2013-07-11 10:02:00,76.0,49.0,30.00,SW,214,6.0,15.0,39,0.00,,,0.00,,2013-07-11 17:02:00,
2013-07-11 10:12:00,77.0,50.0,30.00,SW,215,5.0,15.0,39,0.00,,,0.00,,2013-07-11 17:12:00,
2013-07-11 10:34:00,78.0,50.0,30.01,SW,232,5.0,9.0,37,0.00,,,0.00,,2013-07-11 17:34:00,
2013-07-11 10:43:00,79.0,49.0,30.01,SW,216,3.0,7.0,35,0.00,,,0.00,,2013-07-11 17:43:00,
2013-07-11 10:52:00,79.0,49.0,30.01,SW,216,3.0,7.0,35,0.00,,,0.00,,2013-07-11 17:52:00,
2013-07-11 11:32:00,79.0,50.0,30.03,SSW,208,9.0,13.0,37,0.00,,,0.00,,2013-07-11 18:32:00,
2013-07-11 11:44:00,79.0,50.0,30.03,SW,236,5.0,11.0,36,0.00,,,0.00,,2013-07-11 18:44:00,
2013-07-11 11:53:00,80.0,49.0,30.02,WSW,242,4.0,10.0,34,0.00,,,0.00,,2013-07-11 18:53:00,
2013-07-11 12:01:00,80.0,49.0,30.02,WSW,242,4.0,10.0,34,0.00,,,0.00,,2013-07-11 19:01:00,
2013-07-11 12:11:00,80.0,49.0,30.02,WSW,242,4.0,10.0,34,0.00,,,0.00,,2013-07-11 19:11:00,
2013-07-11 12:34:00,82.0,49.0,30.03,SW,218,4.0,9.0,32,0.00,,,0.00,,2013-07-11 19:34:00,
2013-07-11 12:44:00,82.0,49.0,30.03,North,0,0.0,9.0,32,0.00,,,0.00,,2013-07-11 19:44:00,
2013-07-11 12:52:00,82.0,49.0,30.03,North,0,0.0,9.0,32,0.00,,,0.00,,2013-07-11 19:52:00,
2013-07-11 13:02:00,83.0,50.0,30.02,SW,236,1.0,6.0,32,0.00,,,0.00,,2013-07-11 20:02:00,
2013-07-11 13:11:00,83.0,50.0,30.02,SW,236,1.0,6.0,32,0.00,,,0.00,,2013-07-11 20:11:00,
2013-07-11 13:33:00,85.0,51.0,30.02,South,189,3.0,10.0,31,0.00,,,0.00,,2013-07-11 20:33:00,
2013-07-11 13:52:00,84.0,50.0,30.01,SE,143,2.0,7.0,31,0.00,,,0.00,,2013-07-11 20:52:00,
2013-07-11 14:02:00,85.0,50.0,30.01,South,171,3.0,6.0,30,0.00,,,0.00,,2013-07-11 21:02:00,
2013-07-11 14:11:00,85.0,50.0,30.01,South,171,3.0,6.0,30,0.00,,,0.00,,2013-07-11 21:11:00,
2013-07-11 14:22:00,84.0,48.0,30.01,South,190,5.0,11.0,29,0.00,,,0.00,,2013-07-11 21:22:00,
2013-07-11 14:33:00,84.0,48.0,30.01,South,190,5.0,11.0,29,0.00,,,0.00,,2013-07-11 21:33:00,
2013-07-11 14:52:00,85.0,49.0,30.00,South,185,3.0,11.0,29,0.00,,,0.00,,2013-07-11 21:52:00,
2013-07-11 15:02:00,85.0,48.0,29.99,South,181,5.0,12.0,28,0.00,,,0.00,,2013-07-11 22:02:00,
2013-07-11 15:11:00,85.0,47.0,29.99,SSW,195,4.0,11.0,27,0.00,,,0.00,,2013-07-11 22:11:00,
2013-07-11 15:22:00,85.0,47.0,29.99,SSW,195,4.0,11.0,27,0.00,,,0.00,,2013-07-11 22:22:00,
2013-07-11 15:31:00,85.0,46.0,29.98,South,189,6.0,13.0,26,0.00,,,0.00,,2013-07-11 22:31:00,
2013-07-11 15:43:00,85.0,46.0,29.98,SSW,204,6.0,11.0,26,0.00,,,0.00,,2013-07-11 22:43:00,
2013-07-11 15:52:00,85.0,46.0,29.98,SSW,204,6.0,11.0,26,0.00,,,0.00,,2013-07-11 22:52:00,
2013-07-11 16:01:00,85.0,45.0,29.98,SW,224,6.0,14.0,25,0.00,,,0.00,,2013-07-11 23:01:00,
2013-07-11 16:11:00,85.0,45.0,29.98,SW,224,6.0,14.0,25,0.00,,,0.00,,2013-07-11 23:11:00,
2013-07-11 16:33:00,85.0,46.0,29.95,SSW,207,10.0,17.0,26,0.00,,,0.00,,2013-07-11 23:33:00,
2013-07-11 16:43:00,85.0,47.0,29.95,SSW,197,7.0,15.0,27,0.00,,,0.00,,2013-07-11 23:43:00,
2013-07-11 16:53:00,85.0,47.0,29.95,SSW,197,7.0,15.0,27,0.00,,,0.00,,2013-07-11 23:53:00,
2013-07-11 17:02:00,85.0,47.0,29.94,SSW,209,10.0,15.0,27,0.00,,,0.00,,2013-07-12 00:02:00,
2013-07-11 17:11:00,85.0,49.0,29.93,SSW,206,11.0,17.0,29,0.00,,,0.00,,2013-07-12 00:11:00,
2013-07-11 17:34:00,84.0,48.0,29.93,SSW,211,9.0,16.0,29,0.00,,,0.00,,2013-07-12 00:34:00,
2013-07-11 17:43:00,84.0,48.0,29.93,SSW,204,10.0,18.0,29,0.00,,,0.00,,2013-07-12 00:43:00,
2013-07-11 17:52:00,84.0,48.0,29.93,SSW,206,11.0,17.0,29,0.00,,,0.00,,2013-07-12 00:52:00,
2013-07-11 18:44:00,83.0,48.0,29.93,SW,222,11.0,16.0,30,0.00,,,0.00,,2013-07-12 01:44:00,
2013-07-11 18:53:00,83.0,48.0,29.92,SSW,211,8.0,16.0,30,0.00,,,0.00,,2013-07-12 01:53:00,
2013-07-11 19:02:00,83.0,48.0,29.92,SSW,213,12.0,16.0,30,0.00,,,0.00,,2013-07-12 02:02:00,
2013-07-11 19:12:00,83.0,48.0,29.93,SW,214,10.0,14.0,30,0.00,,,0.00,,2013-07-12 02:12:00,
2013-07-11 19:22:00,83.0,47.0,29.93,SW,218,8.0,15.0,29,0.00,,,0.00,,2013-07-12 02:22:00,
2013-07-11 19:43:00,83.0,47.0,29.92,SW,223,10.0,14.0,29,0.00,,,0.00,,2013-07-12 02:43:00,
2013-07-11 19:52:00,83.0,47.0,29.92,SW,223,10.0,14.0,29,0.00,,,0.00,,2013-07-12 02:52:00,
2013-07-11 20:02:00,83.0,47.0,29.92,SW,223,10.0,14.0,29,0.00,,,0.00,,2013-07-12 03:02:00,
2013-07-11 20:22:00,81.0,47.0,29.92,SSW,212,9.0,17.0,31,0.00,,,0.00,,2013-07-12 03:22:00,
2013-07-11 20:43:00,81.0,49.0,29.92,SW,223,9.0,14.0,33,0.00,,,0.00,,2013-07-12 03:43:00,
2013-07-11 21:01:00,82.0,47.0,29.93,WSW,243,6.0,13.0,30,0.00,,,0.00,,2013-07-12 04:01:00,
2013-07-11 21:11:00,83.0,47.0,29.93,SW,232,11.0,18.0,28,0.00,,,0.00,,2013-07-12 04:11:00,
2013-07-11 21:21:00,83.0,47.0,29.93,WSW,245,7.0,16.0,28,0.00,,,0.00,,2013-07-12 04:21:00,
2013-07-11 21:32:00,83.0,46.0,29.93,SW,230,11.0,16.0,27,0.00,,,0.00,,2013-07-12 04:32:00,
2013-07-11 21:43:00,82.0,46.0,29.93,WSW,242,5.0,14.0,28,0.00,,,0.00,,2013-07-12 04:43:00,
2013-07-11 21:53:00,82.0,46.0,29.94,WSW,253,7.0,17.0,28,0.00,,,0.00,,2013-07-12 04:53:00,
2013-07-11 22:02:00,82.0,46.0,29.93,WNW,294,7.0,18.0,28,0.00,,,0.00,,2013-07-12 05:02:00,
2013-07-11 22:11:00,82.0,45.0,29.93,WNW,298,13.0,25.0,27,0.00,,,0.00,,2013-07-12 05:11:00,
2013-07-11 22:22:00,82.0,45.0,29.93,WNW,298,13.0,25.0,27,0.00,,,0.00,,2013-07-12 05:22:00,
2013-07-11 22:32:00,81.0,46.0,29.94,WNW,294,13.0,21.0,29,0.00,,,0.00,,2013-07-12 05:32:00,
2013-07-11 22:42:00,80.0,45.0,29.94,WNW,295,14.0,21.0,29,0.00,,,0.00,,2013-07-12 05:42:00,
2013-07-11 22:53:00,80.0,45.0,29.94,WNW,298,12.0,22.0,29,0.00,,,0.00,,2013-07-12 05:53:00,
2013-07-11 23:01:00,80.0,45.0,29.93,WNW,298,13.0,24.0,29,0.00,,,0.00,,2013-07-12 06:01:00,
2013-07-11 23:11:00,80.0,45.0,29.93,WNW,298,13.0,24.0,29,0.00,,,0.00,,2013-07-12 06:11:00,
2013-07-11 23:32:00,79.0,46.0,29.95,WNW,300,7.0,24.0,31,0.00,,,0.00,,2013-07-12 06:32:00,
2013-07-11 23:52:00,79.0,47.0,29.95,NW,310,6.0,18.0,32,0.00,,,0.00,,2013-07-12 06:52:00,